This is the latest recevied weather packets stored in our database for station/object EA3CO-11. If no packets are shown the sender has not sent any weather packets the latest 10 day(s).
| Time | Temp. | Humidity | Pressure | Rain* | Wind** | Luminosity | Snow |
|---|---|---|---|---|---|---|---|
| 1778075276 | 18.33° C | 47% | 1013.9 hPa | - | - | - | - |
| 1778074376 | 18.89° C | 47% | 1014.1 hPa | - | - | - | - |
| 1778073476 | 20° C | 45% | 1014.1 hPa | - | - | - | - |
| 1778072576 | 20° C | 47% | 1014.2 hPa | - | - | - | - |
| 1778071676 | 18.89° C | 47% | 1014.4 hPa | - | - | - | - |
| 1778070776 | 19.44° C | 44% | 1014.3 hPa | - | - | - | - |
| 1778069875 | 18.89° C | 45% | 1014.3 hPa | - | - | - | - |
| 1778068975 | 20° C | 44% | 1014.4 hPa | - | - | - | - |
| 1778068075 | 18.89° C | 43% | 1014.2 hPa | - | - | - | - |
| 1778066255 | 20° C | 41% | 1014.5 hPa | - | - | - | - |
| 1778065354 | 18.89° C | 43% | 1014.6 hPa | - | - | - | - |
| 1778064454 | 21.11° C | 42% | 1014.5 hPa | - | - | - | - |
| 1778063554 | 20.56° C | 44% | 1014.7 hPa | - | - | - | - |
| 1778062654 | 18.89° C | 49% | 1014.8 hPa | - | - | - | - |
| 1778061754 | 20° C | 51% | 1014.8 hPa | - | - | - | - |
| 1778060854 | 19.44° C | 52% | 1014.9 hPa | - | - | - | - |
| 1778059954 | 20° C | 57% | 1014.9 hPa | - | - | - | - |
| 1778059053 | 16.11° C | 70% | 1015 hPa | - | - | - | - |
| 1778058153 | 16.11° C | 68% | 1015 hPa | - | - | - | - |
| 1778057253 | 19.44° C | 55% | 1014.7 hPa | - | - | - | - |
| 1778056353 | 19.44° C | 57% | 1014.7 hPa | - | - | - | - |
| 1778055453 | 18.89° C | 57% | 1014.7 hPa | - | - | - | - |
| 1778054553 | 20° C | 53% | 1014.7 hPa | - | - | - | - |
| 1778053653 | 19.44° C | 55% | 1014.7 hPa | - | - | - | - |
| 1778052753 | 18.33° C | 55% | 1014.6 hPa | - | - | - | - |
* Rain since midnight (hover to see other rain measurements)
** Current wind speed in m/s (hover to see current wind gust speed)